createdAt,value
2022-11-18T00:01:29.015Z,311.40
2022-11-18T00:03:55.478Z,305.93
2022-11-18T00:06:21.881Z,310.13
2022-11-18T00:08:48.289Z,311.30
2022-11-18T00:11:14.888Z,314.30
2022-11-18T00:13:41.311Z,315.27
2022-11-18T00:16:07.717Z,302.83
2022-11-18T00:18:34.146Z,311.10
2022-11-18T00:21:00.542Z,311.20
2022-11-18T00:23:26.941Z,313.63
2022-11-18T00:25:53.343Z,311.00
2022-11-18T00:28:19.760Z,312.27
2022-11-18T00:30:46.155Z,313.17
2022-11-18T00:33:12.578Z,309.97
2022-11-18T00:35:39.118Z,313.90
2022-11-18T00:38:05.533Z,313.90
2022-11-18T00:40:31.931Z,312.13
2022-11-18T00:42:58.322Z,303.33
2022-11-18T00:45:24.739Z,307.10
2022-11-18T00:47:51.125Z,309.57
2022-11-18T00:50:17.530Z,305.10
2022-11-18T00:52:43.924Z,304.43
2022-11-18T00:55:10.327Z,310.97
2022-11-18T00:57:36.724Z,313.13
2022-11-18T01:00:03.108Z,314.83
2022-11-18T01:02:29.500Z,310.93
2022-11-18T01:04:55.964Z,311.90
2022-11-18T01:07:22.444Z,306.93
2022-11-18T01:09:48.868Z,303.60
2022-11-18T01:12:15.364Z,303.60
2022-11-18T01:14:41.759Z,300.23
2022-11-18T01:17:08.163Z,306.90
2022-11-18T01:19:34.569Z,306.23
2022-11-18T01:22:00.950Z,303.73
2022-11-18T01:24:27.371Z,306.90
2022-11-18T01:26:53.763Z,308.70
2022-11-18T01:29:20.347Z,314.03
2022-11-18T01:32:16.881Z,313.20
2022-11-18T01:34:33.405Z,302.13
2022-11-18T01:36:59.838Z,298.27
2022-11-18T01:39:26.224Z,313.53
2022-11-18T01:41:52.816Z,311.33
2022-11-18T01:44:19.213Z,311.33
2022-11-18T01:46:45.630Z,309.63
2022-11-18T01:49:12.024Z,306.10
2022-11-18T01:51:38.440Z,313.83
2022-11-18T01:54:04.833Z,307.43
2022-11-18T01:56:31.234Z,308.80
2022-11-18T01:58:57.613Z,310.83
2022-11-18T02:01:24.140Z,313.50
2022-11-18T02:03:50.556Z,315.23
2022-11-18T02:06:16.973Z,312.70
2022-11-18T02:08:43.368Z,297.77
2022-11-18T02:11:09.778Z,314.63
2022-11-18T02:13:36.384Z,309.83
2022-11-18T02:16:02.805Z,312.97
2022-11-18T02:18:29.201Z,312.93
2022-11-18T02:20:55.625Z,309.63
2022-11-18T02:23:22.016Z,308.17
2022-11-18T02:25:48.405Z,318.30
2022-11-18T02:28:14.795Z,319.43
2022-11-18T02:30:41.209Z,306.83
2022-11-18T02:33:07.610Z,311.60
2022-11-18T02:35:33.999Z,310.60
2022-11-18T02:38:00.587Z,313.80
2022-11-18T02:40:26.992Z,297.77
2022-11-18T02:42:53.592Z,314.03
2022-11-18T02:45:19.980Z,310.63
2022-11-18T02:47:46.395Z,296.53
2022-11-18T02:50:12.886Z,313.80
2022-11-18T02:52:39.283Z,314.20
2022-11-18T02:55:05.704Z,311.13
2022-11-18T02:57:32.109Z,309.97
2022-11-18T02:59:58.488Z,310.63
2022-11-18T03:02:27.272Z,311.60
2022-11-18T03:04:53.667Z,312.80
2022-11-18T03:07:20.122Z,299.13
2022-11-18T03:09:46.668Z,313.63
2022-11-18T03:12:13.078Z,308.73
2022-11-18T03:14:39.471Z,314.20
2022-11-18T03:17:05.870Z,312.23
2022-11-18T03:19:32.249Z,310.00
2022-11-18T03:21:58.665Z,317.07
2022-11-18T03:24:25.050Z,313.30
2022-11-18T03:26:51.459Z,313.93
2022-11-18T03:29:18.104Z,316.27
2022-11-18T03:31:44.657Z,316.30
2022-11-18T03:34:11.058Z,316.67
2022-11-18T03:36:37.483Z,326.03
2022-11-18T03:39:03.892Z,316.53
2022-11-18T03:41:30.306Z,310.70
2022-11-18T03:43:56.725Z,310.70
2022-11-18T03:46:23.144Z,312.40
2022-11-18T03:48:49.637Z,312.00
2022-11-18T03:51:18.392Z,302.70
2022-11-18T03:53:44.789Z,310.63
2022-11-18T03:56:17.003Z,301.30
2022-11-18T03:58:43.914Z,302.73
2022-11-18T04:01:10.316Z,309.07
2022-11-18T04:03:36.722Z,302.50
2022-11-18T04:06:03.117Z,307.53
2022-11-18T04:08:29.536Z,308.23
2022-11-18T04:10:56.081Z,307.27
2022-11-18T04:13:22.486Z,302.67
2022-11-18T04:15:48.888Z,309.83
2022-11-18T04:18:15.325Z,309.17
2022-11-18T04:20:41.728Z,309.93
2022-11-18T04:23:08.166Z,312.10
2022-11-18T04:25:34.545Z,312.13
2022-11-18T04:28:00.946Z,310.60
2022-11-18T04:30:27.441Z,311.53
2022-11-18T04:32:53.934Z,297.90
2022-11-18T04:35:20.341Z,310.13
2022-11-18T04:37:46.722Z,309.33
2022-11-18T04:40:13.104Z,308.40
2022-11-18T04:42:39.512Z,310.03
2022-11-18T04:45:05.938Z,310.60
2022-11-18T04:47:32.368Z,312.63
2022-11-18T04:49:58.766Z,315.83
2022-11-18T04:52:25.165Z,312.80
2022-11-18T04:54:51.601Z,310.60
2022-11-18T04:57:18.054Z,315.33
2022-11-18T04:59:44.451Z,311.87
2022-11-18T05:02:10.850Z,310.80
2022-11-18T05:04:37.236Z,314.97
2022-11-18T05:07:03.677Z,302.37
2022-11-18T05:09:32.127Z,308.30
2022-11-18T05:11:58.914Z,308.80
2022-11-18T05:14:25.339Z,301.83
2022-11-18T05:16:51.744Z,311.30
2022-11-18T05:19:18.286Z,300.93
2022-11-18T05:21:44.874Z,315.93
2022-11-18T05:24:11.307Z,320.60
2022-11-18T05:26:37.735Z,314.20
2022-11-18T05:29:04.126Z,313.00
2022-11-18T05:31:30.519Z,312.33
2022-11-18T05:33:56.916Z,312.47
2022-11-18T05:36:23.317Z,310.30
2022-11-18T05:38:49.738Z,312.60
2022-11-18T05:41:16.145Z,309.70
2022-11-18T05:43:42.538Z,309.63
2022-11-18T05:46:08.955Z,314.50
2022-11-18T05:48:35.569Z,314.87
2022-11-18T05:51:01.977Z,300.67
2022-11-18T05:53:28.471Z,315.10
2022-11-18T05:55:54.867Z,308.27
2022-11-18T05:58:21.260Z,305.33
2022-11-18T06:00:47.668Z,313.07
2022-11-18T06:03:14.325Z,315.23
2022-11-18T06:05:40.803Z,308.90
2022-11-18T06:08:07.189Z,315.43
2022-11-18T06:10:33.629Z,308.70
2022-11-18T06:13:00.022Z,300.50
2022-11-18T06:15:26.428Z,317.63
2022-11-18T06:17:52.814Z,311.73
2022-11-18T06:20:19.219Z,315.83
2022-11-18T06:22:46.816Z,315.50
2022-11-18T06:25:13.315Z,315.20
2022-11-18T06:27:39.713Z,304.80
2022-11-18T06:30:06.157Z,313.90
2022-11-18T06:32:32.544Z,314.40
2022-11-18T06:34:58.962Z,318.67
2022-11-18T06:37:25.463Z,326.50
2022-11-18T06:39:51.875Z,320.83
2022-11-18T06:42:18.264Z,319.60
2022-11-18T06:44:44.732Z,318.60
2022-11-18T06:47:11.174Z,314.63
2022-11-18T06:49:37.573Z,317.23
2022-11-18T06:52:03.972Z,318.33
2022-11-18T06:54:30.432Z,315.30
2022-11-18T06:56:56.829Z,310.23
2022-11-18T06:59:23.215Z,318.13
2022-11-18T07:01:49.627Z,301.60
2022-11-18T07:04:16.173Z,312.83
2022-11-18T07:06:42.573Z,311.50
2022-11-18T07:09:09.050Z,314.77
2022-11-18T07:11:35.483Z,313.33
2022-11-18T07:14:01.984Z,306.00
2022-11-18T07:16:28.392Z,299.60
2022-11-18T07:18:54.774Z,306.33
2022-11-18T07:21:21.176Z,307.30
2022-11-18T07:23:47.649Z,307.87
2022-11-18T07:26:14.047Z,309.30
2022-11-18T07:28:40.448Z,309.67
2022-11-18T07:31:06.851Z,306.97
2022-11-18T07:33:33.245Z,299.60
2022-11-18T07:35:59.822Z,307.80
2022-11-18T07:38:26.223Z,311.33
2022-11-18T07:40:52.804Z,314.57
2022-11-18T07:43:19.197Z,319.40
2022-11-18T07:45:45.601Z,309.53
2022-11-18T07:48:12.001Z,317.40
2022-11-18T07:50:41.943Z,311.50
2022-11-18T07:53:10.776Z,315.73
2022-11-18T07:55:37.179Z,307.20
2022-11-18T07:58:03.573Z,315.47
2022-11-18T08:00:29.981Z,310.73
2022-11-18T08:02:56.371Z,313.80
2022-11-18T08:05:23.117Z,304.90
2022-11-18T08:07:49.689Z,315.60
2022-11-18T08:10:16.105Z,317.17
2022-11-18T08:12:42.537Z,316.10
2022-11-18T08:15:08.927Z,310.40
2022-11-18T08:17:35.315Z,310.10
2022-11-18T08:20:01.689Z,315.47
2022-11-18T08:22:28.093Z,300.73
2022-11-18T08:24:54.497Z,313.97
2022-11-18T08:27:20.899Z,310.80
2022-11-18T08:29:47.314Z,307.60
2022-11-18T08:32:13.712Z,314.43
2022-11-18T08:34:40.117Z,317.33
2022-11-18T08:37:06.529Z,318.60
2022-11-18T08:39:32.932Z,321.40
2022-11-18T08:41:59.324Z,339.73
2022-11-18T08:44:25.727Z,337.13
2022-11-18T08:46:52.128Z,323.50
2022-11-18T08:49:18.673Z,333.83
2022-11-18T08:51:45.205Z,324.63
2022-11-18T08:54:11.593Z,334.47
2022-11-18T08:56:38.120Z,325.83
2022-11-18T08:59:04.529Z,327.20
2022-11-18T09:01:30.952Z,337.37
2022-11-18T09:03:57.430Z,328.57
2022-11-18T09:06:23.946Z,321.03
2022-11-18T09:08:50.338Z,305.93
2022-11-18T09:11:16.840Z,318.00
2022-11-18T09:14:14.307Z,305.37
2022-11-18T09:16:29.620Z,311.17
2022-11-18T09:18:56.030Z,318.13
2022-11-18T09:21:22.447Z,317.80
2022-11-18T09:23:48.871Z,314.70
2022-11-18T09:26:15.294Z,319.23
2022-11-18T09:28:41.697Z,324.10
2022-11-18T09:31:08.131Z,319.90
2022-11-18T09:33:34.573Z,321.33
2022-11-18T09:36:01.044Z,323.83
2022-11-18T09:38:27.439Z,316.63
2022-11-18T09:40:53.900Z,322.00
2022-11-18T09:43:20.300Z,316.57
2022-11-18T09:45:46.701Z,316.27
2022-11-18T09:48:13.118Z,317.10
2022-11-18T09:50:49.795Z,318.10
2022-11-18T09:53:16.957Z,321.03
2022-11-18T09:55:43.377Z,322.30
2022-11-18T09:58:09.779Z,318.83
2022-11-18T10:00:36.186Z,322.13
2022-11-18T10:03:02.588Z,326.03
2022-11-18T10:05:29.018Z,316.03
2022-11-18T10:07:55.430Z,339.57
2022-11-18T10:10:21.821Z,318.00
2022-11-18T10:12:48.205Z,323.47
2022-11-18T10:15:14.613Z,321.20
2022-11-18T10:17:41.025Z,320.23
2022-11-18T10:20:07.497Z,317.53
2022-11-18T10:22:33.909Z,321.53
2022-11-18T10:25:00.302Z,318.83
2022-11-18T10:27:26.692Z,317.77
2022-11-18T10:29:53.288Z,323.73
2022-11-18T10:32:19.712Z,317.70
2022-11-18T10:34:46.098Z,324.50
2022-11-18T10:37:12.492Z,319.33
2022-11-18T10:39:38.962Z,326.93
2022-11-18T10:42:05.358Z,322.33
2022-11-18T10:44:31.760Z,314.17
2022-11-18T10:46:58.175Z,326.63
2022-11-18T10:49:24.580Z,312.53
2022-11-18T10:51:50.983Z,327.80
2022-11-18T10:54:17.646Z,325.63
2022-11-18T10:56:44.231Z,321.80
2022-11-18T10:59:10.640Z,320.20
2022-11-18T11:01:37.127Z,329.50
2022-11-18T11:04:03.568Z,316.07
2022-11-18T11:06:30.019Z,321.50
2022-11-18T11:08:56.425Z,329.60
2022-11-18T11:11:22.823Z,324.73
2022-11-18T11:13:49.221Z,305.60
2022-11-18T11:16:15.638Z,318.30
2022-11-18T11:18:42.116Z,322.40
2022-11-18T11:21:08.536Z,316.03
2022-11-18T11:23:34.994Z,319.43
2022-11-18T11:28:49.242Z,311.80
2022-11-18T11:31:15.661Z,317.33
2022-11-18T11:33:42.069Z,322.73
2022-11-18T11:36:08.481Z,318.60
2022-11-18T11:38:34.890Z,317.37
2022-11-18T11:41:01.293Z,332.80
2022-11-18T11:43:27.757Z,332.67
2022-11-18T11:45:54.160Z,342.20
2022-11-18T11:48:20.604Z,330.13
2022-11-18T11:50:54.755Z,309.47
2022-11-18T11:53:23.735Z,312.33
2022-11-18T11:55:50.140Z,313.63
2022-11-18T11:58:16.539Z,308.50
2022-11-18T12:00:42.922Z,308.70
2022-11-18T12:03:09.354Z,317.10
2022-11-18T12:05:35.754Z,315.83
2022-11-18T12:08:02.170Z,317.23
2022-11-18T12:10:28.700Z,314.50
2022-11-18T12:12:55.100Z,320.57
2022-11-18T12:15:21.496Z,313.07
2022-11-18T12:17:47.897Z,305.90
2022-11-18T12:20:14.306Z,313.03
2022-11-18T12:22:40.694Z,322.80
2022-11-18T12:25:07.096Z,319.10
2022-11-18T12:27:33.493Z,324.47
2022-11-18T12:29:59.899Z,302.30
2022-11-18T12:32:26.330Z,322.63
2022-11-18T12:34:52.773Z,327.40
2022-11-18T12:37:19.210Z,325.90
2022-11-18T12:39:45.602Z,313.43
2022-11-18T12:42:12.064Z,306.03
2022-11-18T12:44:38.488Z,301.47
2022-11-18T12:47:04.902Z,289.33
2022-11-18T12:49:31.315Z,269.07
2022-11-18T12:51:57.715Z,274.67
2022-11-18T12:54:24.126Z,271.60
2022-11-18T12:56:50.525Z,256.67
2022-11-18T12:59:17.194Z,260.73
2022-11-18T13:01:43.896Z,256.83
2022-11-18T13:04:10.288Z,256.37
2022-11-18T13:06:36.693Z,249.27
2022-11-18T13:09:03.083Z,248.33
2022-11-18T13:11:29.526Z,250.53
2022-11-18T13:13:56.035Z,256.60
2022-11-18T13:16:22.640Z,242.40
2022-11-18T13:18:49.075Z,242.33
2022-11-18T13:21:15.470Z,239.73
2022-11-18T13:23:41.863Z,240.33
2022-11-18T13:26:08.255Z,242.57
2022-11-18T13:28:34.661Z,233.13
2022-11-18T13:31:01.284Z,222.57
2022-11-18T13:33:27.877Z,233.33
2022-11-18T13:35:54.342Z,224.10
2022-11-18T13:38:26.151Z,225.13
2022-11-18T13:40:54.302Z,218.07
2022-11-18T13:43:20.701Z,228.90
2022-11-18T13:45:47.095Z,226.87
2022-11-18T13:48:13.507Z,228.77
2022-11-18T13:50:39.906Z,228.07
2022-11-18T13:53:06.351Z,227.40
2022-11-18T13:55:32.951Z,248.83
2022-11-18T13:57:59.384Z,245.93
2022-11-18T14:00:25.865Z,248.63
2022-11-18T14:02:52.302Z,232.53
2022-11-18T14:05:21.442Z,224.57
2022-11-18T14:07:48.352Z,233.57
2022-11-18T14:10:14.807Z,229.30
2022-11-18T14:12:41.354Z,223.33
2022-11-18T14:15:07.752Z,223.97
2022-11-18T14:17:34.165Z,231.47
2022-11-18T14:20:00.569Z,247.37
2022-11-18T14:22:26.972Z,234.37
2022-11-18T14:24:53.377Z,241.37
2022-11-18T14:27:19.780Z,234.67
2022-11-18T14:29:46.171Z,220.23
2022-11-18T14:32:12.577Z,223.77
2022-11-18T14:34:39.013Z,219.47
2022-11-18T14:37:05.410Z,197.17
2022-11-18T14:39:32.193Z,210.57
2022-11-18T14:41:58.684Z,221.83
2022-11-18T14:44:25.097Z,216.70
2022-11-18T14:46:51.504Z,219.37
2022-11-18T14:49:18.252Z,234.07
2022-11-18T14:51:45.233Z,204.53
2022-11-18T14:54:11.652Z,214.97
2022-11-18T14:56:38.246Z,217.70
2022-11-18T14:59:04.641Z,239.00
2022-11-18T15:01:31.360Z,220.33
2022-11-18T15:03:57.839Z,232.37
2022-11-18T15:06:24.221Z,224.57
2022-11-18T15:08:50.624Z,231.17
2022-11-18T15:11:17.005Z,239.30
2022-11-18T15:13:43.406Z,233.67
2022-11-18T15:16:09.795Z,233.83
2022-11-18T15:18:36.370Z,225.43
2022-11-18T15:21:02.959Z,233.57
2022-11-18T15:23:29.997Z,225.40
2022-11-18T15:25:56.463Z,227.23
2022-11-18T15:28:22.913Z,254.77
2022-11-18T15:30:49.509Z,251.97
2022-11-18T15:33:15.917Z,243.03
2022-11-18T15:35:42.350Z,264.80
2022-11-18T15:38:08.754Z,261.60
2022-11-18T15:40:35.138Z,247.83
2022-11-18T15:43:01.546Z,228.50
2022-11-18T15:45:27.941Z,243.63
2022-11-18T15:47:54.350Z,240.63
2022-11-18T15:50:20.748Z,238.27
2022-11-18T15:52:47.137Z,231.23
2022-11-18T15:55:13.553Z,244.93
2022-11-18T15:57:40.161Z,251.83
2022-11-18T16:00:06.569Z,259.23
2022-11-18T16:02:33.001Z,248.17
2022-11-18T16:04:59.388Z,245.83
2022-11-18T16:07:25.836Z,253.97
2022-11-18T16:09:52.417Z,253.40
2022-11-18T16:12:18.801Z,252.13
2022-11-18T16:14:45.204Z,260.23
2022-11-18T16:17:11.636Z,250.33
2022-11-18T16:19:38.033Z,257.60
2022-11-18T16:22:04.529Z,255.17
2022-11-18T16:24:30.923Z,243.80
2022-11-18T16:26:57.333Z,252.27
2022-11-18T16:32:10.120Z,250.73
2022-11-18T16:34:36.526Z,256.10
2022-11-18T16:37:02.914Z,260.03
2022-11-18T16:39:29.305Z,264.17
2022-11-18T16:40:28.282Z,257.53
2022-11-18T16:41:55.764Z,262.57
2022-11-18T16:44:22.339Z,261.03
2022-11-18T16:46:48.769Z,265.23
2022-11-18T16:49:15.215Z,250.90
2022-11-18T16:51:41.632Z,255.47
2022-11-18T16:54:08.090Z,252.33
2022-11-18T16:56:34.521Z,257.97
2022-11-18T16:59:00.942Z,258.27
2022-11-18T17:01:29.542Z,262.97
2022-11-18T17:03:56.346Z,266.77
2022-11-18T17:06:22.941Z,266.47
2022-11-18T17:08:49.459Z,270.47
2022-11-18T17:11:15.843Z,266.53
2022-11-18T17:13:42.248Z,257.67
2022-11-18T17:16:08.692Z,264.13
2022-11-18T17:18:35.087Z,266.37
2022-11-18T17:21:01.468Z,261.97
2022-11-18T17:23:27.879Z,252.23
2022-11-18T17:25:54.265Z,265.93
2022-11-18T17:28:20.666Z,269.07
2022-11-18T17:30:50.030Z,254.77
2022-11-18T17:33:18.448Z,265.20
2022-11-18T17:35:44.841Z,268.77
2022-11-18T17:38:11.245Z,261.37
2022-11-18T17:40:37.645Z,261.57
2022-11-18T17:43:04.052Z,257.57
2022-11-18T17:45:30.464Z,267.10
2022-11-18T17:47:56.861Z,270.87
2022-11-18T17:50:23.253Z,267.67
2022-11-18T17:52:49.661Z,271.87
2022-11-18T17:55:16.065Z,264.83
2022-11-18T17:57:42.470Z,276.37
2022-11-18T18:00:08.864Z,262.20
2022-11-18T18:02:35.249Z,266.63
2022-11-18T18:05:01.686Z,282.77
2022-11-18T18:07:28.329Z,269.97
2022-11-18T18:09:54.763Z,269.97
2022-11-18T18:12:21.180Z,268.57
2022-11-18T18:14:47.597Z,276.47
2022-11-18T18:17:13.982Z,271.27
2022-11-18T18:19:40.394Z,264.23
2022-11-18T18:22:07.004Z,262.50
2022-11-18T18:24:33.420Z,251.10
2022-11-18T18:26:59.922Z,274.23
2022-11-18T18:29:26.345Z,272.10
2022-11-18T18:31:52.753Z,274.87
2022-11-18T18:34:19.400Z,267.77
2022-11-18T18:36:45.941Z,273.83
2022-11-18T18:39:12.341Z,266.90
2022-11-18T18:41:38.745Z,277.07
2022-11-18T18:44:05.175Z,268.77
2022-11-18T18:46:31.574Z,273.53
2022-11-18T18:48:57.990Z,275.30
2022-11-18T18:51:24.409Z,279.60
2022-11-18T18:53:50.817Z,274.43
2022-11-18T18:56:17.405Z,286.97
2022-11-18T18:58:43.796Z,275.43
2022-11-18T19:01:10.247Z,269.33
2022-11-18T19:03:36.778Z,275.03
2022-11-18T19:06:41.506Z,274.07
2022-11-18T19:08:49.764Z,273.33
2022-11-18T19:11:16.428Z,279.03
2022-11-18T19:13:42.864Z,266.83
2022-11-18T19:16:09.445Z,269.87
2022-11-18T19:18:36.859Z,273.53
2022-11-18T19:21:03.449Z,281.60
2022-11-18T19:23:29.848Z,277.97
2022-11-18T19:25:56.322Z,283.33
2022-11-18T19:28:22.901Z,283.53
2022-11-18T19:30:49.315Z,282.53
2022-11-18T19:33:15.697Z,281.90
2022-11-18T19:35:42.105Z,265.67
2022-11-18T19:38:08.497Z,280.20
2022-11-18T19:40:34.903Z,275.90
2022-11-18T19:43:01.305Z,282.03
2022-11-18T19:45:27.723Z,288.57
2022-11-18T19:47:54.116Z,283.00
2022-11-18T19:50:20.528Z,280.50
2022-11-18T19:52:46.922Z,280.63
2022-11-18T19:55:13.345Z,284.43
2022-11-18T19:57:39.747Z,279.50
2022-11-18T20:00:06.140Z,276.30
2022-11-18T20:02:32.538Z,295.13
2022-11-18T20:04:58.928Z,286.23
2022-11-18T20:07:25.375Z,285.50
2022-11-18T20:09:51.801Z,276.43
2022-11-18T20:12:18.186Z,282.17
2022-11-18T20:14:44.603Z,278.23
2022-11-18T20:17:10.983Z,268.93
2022-11-18T20:19:37.379Z,282.53
2022-11-18T20:22:03.752Z,286.83
2022-11-18T20:24:30.157Z,272.17
2022-11-18T20:26:56.551Z,283.30
2022-11-18T20:29:22.943Z,287.53
2022-11-18T20:31:49.357Z,295.60
2022-11-18T20:34:15.735Z,286.07
2022-11-18T20:36:42.117Z,292.57
2022-11-18T20:39:08.513Z,292.90
2022-11-18T20:41:34.918Z,285.63
2022-11-18T20:44:01.341Z,290.70
2022-11-18T20:46:27.828Z,294.00
2022-11-18T20:48:54.232Z,288.10
2022-11-18T20:51:20.642Z,278.67
2022-11-18T20:53:47.121Z,289.77
2022-11-18T20:56:13.566Z,300.67
2022-11-18T20:58:39.991Z,299.50
2022-11-18T21:01:06.496Z,286.17
2022-11-18T21:03:32.898Z,303.90
2022-11-18T21:05:59.299Z,298.33
2022-11-18T21:08:25.673Z,297.37
2022-11-18T21:10:52.081Z,292.10
2022-11-18T21:13:18.497Z,293.93
2022-11-18T21:15:44.909Z,290.00
2022-11-18T21:18:11.295Z,288.37
2022-11-18T21:20:37.728Z,284.67
2022-11-18T21:23:04.140Z,275.20
2022-11-18T21:25:30.573Z,293.57
2022-11-18T21:27:57.045Z,296.80
2022-11-18T21:30:23.462Z,293.73
2022-11-18T21:32:50.053Z,293.30
2022-11-18T21:35:16.445Z,296.80
2022-11-18T21:37:42.852Z,297.13
2022-11-18T21:40:09.271Z,304.07
2022-11-18T21:42:35.651Z,296.77
2022-11-18T21:45:02.055Z,300.73
2022-11-18T21:47:28.436Z,285.20
2022-11-18T21:49:54.834Z,286.53
2022-11-18T21:52:21.251Z,300.43
2022-11-18T21:54:47.640Z,281.47
2022-11-18T21:57:14.031Z,295.50
2022-11-18T21:59:40.434Z,295.23
2022-11-18T22:02:06.823Z,291.93
2022-11-18T22:04:33.219Z,280.33
2022-11-18T22:06:59.693Z,287.23
2022-11-18T22:09:28.188Z,283.87
2022-11-18T22:11:56.606Z,284.80
2022-11-18T22:14:22.999Z,280.80
2022-11-18T22:16:49.385Z,292.57
2022-11-18T22:19:15.773Z,301.57
2022-11-18T22:21:42.161Z,294.70
2022-11-18T22:24:08.547Z,294.43
2022-11-18T22:26:34.933Z,293.93
2022-11-18T22:29:01.327Z,275.90
2022-11-18T22:31:27.718Z,294.40
2022-11-18T22:33:54.118Z,283.53
2022-11-18T22:36:20.576Z,285.73
2022-11-18T22:38:46.963Z,290.40
2022-11-18T22:41:13.355Z,292.17
2022-11-18T22:43:39.744Z,296.53
2022-11-18T22:46:06.125Z,296.50
2022-11-18T22:48:32.518Z,290.20
2022-11-18T22:50:58.913Z,300.23
2022-11-18T22:53:25.283Z,287.00
2022-11-18T22:55:51.672Z,283.20
2022-11-18T22:58:18.043Z,284.80
2022-11-18T23:00:44.433Z,273.97
2022-11-18T23:03:10.809Z,286.70
2022-11-18T23:05:37.211Z,279.50
2022-11-18T23:08:03.658Z,287.77
2022-11-18T23:10:30.086Z,283.93
2022-11-18T23:12:56.478Z,294.07
2022-11-18T23:15:22.892Z,288.03
2022-11-18T23:17:49.285Z,294.90
2022-11-18T23:20:15.667Z,302.20
2022-11-18T23:22:42.051Z,305.50
2022-11-18T23:25:08.463Z,295.57
2022-11-18T23:27:34.868Z,304.20
2022-11-18T23:30:01.273Z,292.33
2022-11-18T23:32:27.669Z,307.23
2022-11-18T23:34:54.178Z,316.40
2022-11-18T23:37:20.566Z,304.13
2022-11-18T23:39:46.956Z,297.83
2022-11-18T23:42:13.345Z,297.90
2022-11-18T23:44:39.749Z,297.17
2022-11-18T23:47:06.136Z,294.93
2022-11-18T23:49:32.546Z,294.67
2022-11-18T23:51:58.950Z,302.57
2022-11-18T23:54:25.340Z,308.13
2022-11-18T23:56:51.736Z,300.83
2022-11-18T23:59:18.335Z,301.60
